Sophie — WDH2326 — position and weather

sailwx.info

Track history (hours):
 
Tides and Currents Weather Stations Pressure Air Temp Water Temp Dewpoint Dewpoint Depression Visibility Wind Speed Wind Dir Waves Ship Positions

Sophie

Owner: Huey, George H, Chino Valley, AZ. More information available from US FCC via Universal Licensing System and Coast Guard Vessel Documentation Center.

Last reported at 2017-Nov-26 15:36 UTC. Time now 2018-Jan-20 15:32 UTC.
Position N 34°28' W 076°45'.
Warning: this ship's position is 54 days out of date.

Length 14 m.

Type: Sailing vessel. MMSI: 367596470.

Date/timePositionNaut miles runAvg speedWind from/ knotsBaromVisibWave heightAir tempDewpointWater temp
2017-Nov-26 15:36N 34°28' W 076°45'1 7.0
2017-Nov-26 15:30N 34°29' W 076°44'4 7.2
2017-Nov-26 15:00N 34°31' W 076°41'4 7.1
2017-Nov-26 14:30N 34°34' W 076°38'4 7.1
2017-Nov-26 14:00N 34°37' W 076°35'3 5.1
2017-Nov-26 13:30N 34°38' W 076°33'1 1.4
2017-Nov-26 13:00N 34°37' W 076°33'0 0.0
2017-Nov-26 12:30N 34°37' W 076°33'0 0.0
2017-Nov-26 12:00N 34°37' W 076°33'0 0.0
2017-Nov-25 14:35N 34°37' W 076°33'0 0.1
2017-Nov-25 14:29N 34°37' W 076°33'0 0.0
2017-Nov-25 13:59N 34°37' W 076°33'0 0.0
2017-Nov-25 02:54N 34°37' W 076°33'0 0.0
2017-Nov-25 02:27N 34°37' W 076°33'0 0.0
2017-Nov-25 02:00N 34°37' W 076°33'0 0.0
2017-Nov-25 01:30N 34°37' W 076°33'0 0.0
2017-Nov-25 00:57N 34°37' W 076°33'0 0.0
2017-Nov-25 00:30N 34°37' W 076°33'0 0.0
2017-Nov-25 00:00N 34°37' W 076°33'0 0.0
2017-Nov-24 23:30N 34°37' W 076°33'0 0.0
2017-Nov-24 23:00N 34°37' W 076°33'0 0.9
2017-Nov-24 22:30N 34°38' W 076°33'3 5.3
2017-Nov-24 22:00N 34°39' W 076°36'3 6.0
2017-Nov-24 21:30N 34°39' W 076°39'3 5.9
2017-Nov-24 21:00N 34°42' W 076°41'2 3.7
2017-Nov-24 20:30N 34°43' W 076°42'0 0.1
2017-Nov-24 20:00N 34°43' W 076°42'0 0.0
2017-Nov-24 19:29N 34°43' W 076°42'0 0.0
2017-Nov-24 18:59N 34°43' W 076°42'0 0.0
2017-Nov-24 18:29N 34°43' W 076°42'0 0.0
2017-Nov-24 17:59N 34°43' W 076°42'0 0.0
2017-Nov-23 21:42N 34°43' W 076°42'0 0.0
2017-Nov-23 21:30N 34°43' W 076°42'0 0.0
2017-Nov-23 21:00N 34°43' W 076°42'0 0.0
2017-Nov-23 20:30N 34°43' W 076°42'0 0.0
2017-Nov-23 20:00N 34°43' W 076°42'0 0.0
2017-Nov-23 19:30N 34°43' W 076°42'0 0.0
2017-Nov-23 19:00N 34°43' W 076°42'0 0.0
2017-Nov-23 18:30N 34°43' W 076°42'0 0.0
2017-Nov-23 18:00N 34°43' W 076°42'0 0.0
2017-Nov-23 17:30N 34°43' W 076°42'0 0.0
2017-Nov-23 17:00N 34°43' W 076°42'0 0.0
2017-Nov-22 22:00N 34°43' W 076°42'0 0.0
2017-Nov-22 21:27N 34°43' W 076°42'0 0.0
2017-Nov-22 21:00N 34°43' W 076°42'0 0.0
2017-Nov-22 20:30N 34°43' W 076°42'0 0.8
2017-Nov-22 20:00N 34°43' W 076°42'1 2.8
2017-Nov-22 19:30N 34°42' W 076°41'  
Track history (hours):
 
Tides and Currents Weather Stations Pressure Air Temp Water Temp Dewpoint Dewpoint Depression Visibility Wind Speed Wind Dir Waves Ship Positions

Sophie

Owner: Huey, George H, Chino Valley, AZ. More information available from US FCC via Universal Licensing System and Coast Guard Vessel Documentation Center.

Last reported at 2017-Nov-26 15:36 UTC. Time now 2018-Jan-20 15:32 UTC.
Position N 34°28' W 076°45'.
Warning: this ship's position is 54 days out of date.

Length 14 m.

Type: Sailing vessel. MMSI: 367596470.

Date/timePositionNaut miles runAvg speedWind from/ knotsBaromVisibWave heightAir tempDewpointWater temp
2017-Nov-26 15:36N 34°28' W 076°45'1 7.0
2017-Nov-26 15:30N 34°29' W 076°44'4 7.2
2017-Nov-26 15:00N 34°31' W 076°41'4 7.1
2017-Nov-26 14:30N 34°34' W 076°38'4 7.1
2017-Nov-26 14:00N 34°37' W 076°35'3 5.1
2017-Nov-26 13:30N 34°38' W 076°33'1 1.4
2017-Nov-26 13:00N 34°37' W 076°33'0 0.0
2017-Nov-26 12:30N 34°37' W 076°33'0 0.0
2017-Nov-26 12:00N 34°37' W 076°33'0 0.0
2017-Nov-25 14:35N 34°37' W 076°33'0 0.1
2017-Nov-25 14:29N 34°37' W 076°33'0 0.0
2017-Nov-25 13:59N 34°37' W 076°33'0 0.0
2017-Nov-25 02:54N 34°37' W 076°33'0 0.0
2017-Nov-25 02:27N 34°37' W 076°33'0 0.0
2017-Nov-25 02:00N 34°37' W 076°33'0 0.0
2017-Nov-25 01:30N 34°37' W 076°33'0 0.0
2017-Nov-25 00:57N 34°37' W 076°33'0 0.0
2017-Nov-25 00:30N 34°37' W 076°33'0 0.0
2017-Nov-25 00:00N 34°37' W 076°33'0 0.0
2017-Nov-24 23:30N 34°37' W 076°33'0 0.0
2017-Nov-24 23:00N 34°37' W 076°33'0 0.9
2017-Nov-24 22:30N 34°38' W 076°33'3 5.3
2017-Nov-24 22:00N 34°39' W 076°36'3 6.0
2017-Nov-24 21:30N 34°39' W 076°39'3 5.9
2017-Nov-24 21:00N 34°42' W 076°41'2 3.7
2017-Nov-24 20:30N 34°43' W 076°42'0 0.1
2017-Nov-24 20:00N 34°43' W 076°42'0 0.0
2017-Nov-24 19:29N 34°43' W 076°42'0 0.0
2017-Nov-24 18:59N 34°43' W 076°42'0 0.0
2017-Nov-24 18:29N 34°43' W 076°42'0 0.0
2017-Nov-24 17:59N 34°43' W 076°42'0 0.0
2017-Nov-23 21:42N 34°43' W 076°42'0 0.0
2017-Nov-23 21:30N 34°43' W 076°42'0 0.0
2017-Nov-23 21:00N 34°43' W 076°42'0 0.0
2017-Nov-23 20:30N 34°43' W 076°42'0 0.0
2017-Nov-23 20:00N 34°43' W 076°42'0 0.0
2017-Nov-23 19:30N 34°43' W 076°42'0 0.0
2017-Nov-23 19:00N 34°43' W 076°42'0 0.0
2017-Nov-23 18:30N 34°43' W 076°42'0 0.0
2017-Nov-23 18:00N 34°43' W 076°42'0 0.0
2017-Nov-23 17:30N 34°43' W 076°42'0 0.0
2017-Nov-23 17:00N 34°43' W 076°42'0 0.0
2017-Nov-22 22:00N 34°43' W 076°42'0 0.0
2017-Nov-22 21:27N 34°43' W 076°42'0 0.0
2017-Nov-22 21:00N 34°43' W 076°42'0 0.0
2017-Nov-22 20:30N 34°43' W 076°42'0 0.8
2017-Nov-22 20:00N 34°43' W 076°42'1 2.8
2017-Nov-22 19:30N 34°42' W 076°41'  

Dump ship's entire track history